Time;durP1;ratioP1;P1;durP2;ratioP2;P2;SDS_P1;SDS_P2;PMS_P1;PMS_P2;Temp;Humidity;BMP_temperature;BMP_pressure;BME280_temperature;BME280_humidity;BME280_pressure;Samples;Min_cycle;Max_cycle;Signal;HPM_P1;HPM_P2
2021/01/10 00:00:09;;;;;;;38.15;22.23;;;2.20;89.30;;;;;;5016488;28;20037;-55
2021/01/10 00:02:35;;;;;;;43.60;22.92;;;2.30;89.10;;;;;;5033454;28;20500;-56
2021/01/10 00:05:02;;;;;;;41.13;23.27;;;2.30;88.50;;;;;;5033308;28;20093;-58
2021/01/10 00:07:28;;;;;;;45.45;23.83;;;2.00;89.70;;;;;;5041669;28;20455;-60
2021/01/10 00:09:54;;;;;;;47.42;26.00;;;2.00;89.70;;;;;;5018536;28;20030;-57
2021/01/10 00:12:27;;;;;;;88.97;42.50;;;2.10;89.50;;;;;;5033424;28;20076;-53
2021/01/10 00:14:53;;;;;;;51.60;26.85;;;2.10;90.00;;;;;;5015505;28;20029;-59
2021/01/10 00:17:19;;;;;;;45.53;24.52;;;2.20;89.60;;;;;;5033152;28;20041;-56
2021/01/10 00:19:46;;;;;;;43.80;23.58;;;2.20;89.20;;;;;;5033733;28;20040;-54
2021/01/10 00:22:13;;;;;;;43.03;23.38;;;2.30;89.00;;;;;;5034922;28;20094;-55
2021/01/10 00:24:41;;;;;;;52.30;26.35;;;2.30;88.70;;;;;;5033201;28;20037;-53
2021/01/10 00:27:08;;;;;;;42.40;23.10;;;2.30;88.70;;;;;;5032862;28;20046;-55
2021/01/10 00:29:35;;;;;;;45.20;24.40;;;2.30;88.80;;;;;;5032969;28;20044;-60
2021/01/10 00:32:00;;;;;;;42.97;23.30;;;2.40;88.50;;;;;;5033135;28;20037;-58
2021/01/10 00:34:26;;;;;;;37.80;22.38;;;2.40;88.60;;;;;;5033100;28;20147;-54
2021/01/10 00:36:52;;;;;;;40.80;22.85;;;2.50;87.70;;;;;;5032789;28;20034;-56
2021/01/10 00:39:17;;;;;;;46.22;25.02;;;2.40;88.10;;;;;;5032852;28;20029;-56
2021/01/10 00:41:43;;;;;;;44.08;25.20;;;2.40;88.20;;;;;;5032840;28;20045;-57
2021/01/10 00:44:08;;;;;;;40.70;23.45;;;2.50;88.00;;;;;;5032483;28;20036;-55
2021/01/10 00:46:34;;;;;;;41.20;23.73;;;2.50;87.90;;;;;;5032570;28;20439;-56
2021/01/10 00:49:00;;;;;;;40.35;22.70;;;2.40;87.90;;;;;;5032370;28;20041;-56
2021/01/10 00:51:26;;;;;;;42.28;23.27;;;2.50;87.90;;;;;;5014893;28;20045;-56
2021/01/10 00:53:51;;;;;;;39.50;22.15;;;2.60;86.60;;;;;;5032421;28;20037;-56
2021/01/10 00:56:17;;;;;;;40.45;23.33;;;2.50;87.30;;;;;;5032170;28;20362;-59
2021/01/10 00:58:43;;;;;;;46.38;24.05;;;2.40;87.40;;;;;;5013595;28;20095;-53
2021/01/10 01:01:08;;;;;;;46.45;23.75;;;2.40;87.00;;;;;;5031139;28;20056;-57
2021/01/10 01:03:34;;;;;;;68.47;33.25;;;2.40;87.20;;;;;;5030987;28;20037;-65
2021/01/10 01:05:59;;;;;;;44.50;24.60;;;2.30;87.50;;;;;;5031881;28;20034;-56
2021/01/10 01:08:25;;;;;;;41.28;23.60;;;2.40;87.20;;;;;;5031751;28;20049;-55
2021/01/10 01:10:51;;;;;;;44.67;23.55;;;2.30;88.10;;;;;;5031273;28;20040;-55
2021/01/10 01:13:17;;;;;;;45.95;25.27;;;2.30;88.30;;;;;;5031121;28;20045;-55
2021/01/10 01:15:43;;;;;;;42.20;22.70;;;2.40;88.60;;;;;;5028891;28;20138;-53
2021/01/10 01:18:09;;;;;;;44.80;24.23;;;2.40;87.80;;;;;;5034224;28;20499;-58
2021/01/10 01:20:35;;;;;;;40.28;23.08;;;2.40;87.80;;;;;;5031334;28;20033;-52
2021/01/10 01:23:02;;;;;;;40.08;23.35;;;2.40;87.90;;;;;;5030998;28;20034;-63
2021/01/10 01:25:28;;;;;;;44.70;24.50;;;2.40;87.30;;;;;;5030808;28;20103;-58
2021/01/10 01:27:54;;;;;;;41.72;24.50;;;2.20;88.20;;;;;;5031133;28;20683;-60
2021/01/10 01:30:20;;;;;;;43.53;23.55;;;2.30;87.60;;;;;;5031425;28;20052;-60
2021/01/10 01:32:46;;;;;;;41.30;23.67;;;2.40;87.70;;;;;;5029054;28;20033;-54
2021/01/10 01:35:12;;;;;;;43.35;23.70;;;2.40;87.90;;;;;;5022127;28;20172;-55
2021/01/10 01:37:38;;;;;;;42.13;24.45;;;2.30;87.40;;;;;;5019832;28;20797;-55
2021/01/10 01:40:05;;;;;;;43.38;23.45;;;2.40;87.00;;;;;;5019580;28;20104;-56
2021/01/10 01:42:31;;;;;;;43.30;22.55;;;2.30;87.30;;;;;;5021073;28;20050;-55
2021/01/10 01:44:57;;;;;;;45.40;25.52;;;2.20;88.50;;;;;;5024723;28;20104;-57
2021/01/10 01:47:23;;;;;;;42.42;24.10;;;2.30;88.00;;;;;;5020763;28;20044;-57
2021/01/10 01:49:49;;;;;;;44.15;22.83;;;2.30;88.00;;;;;;5024261;28;20026;-57
2021/01/10 01:52:15;;;;;;;46.20;23.40;;;2.30;88.40;;;;;;5020777;28;20041;-57
2021/01/10 01:54:42;;;;;;;42.45;23.33;;;2.40;88.20;;;;;;5026924;28;20041;-61
2021/01/10 01:57:07;;;;;;;44.42;24.42;;;2.40;87.90;;;;;;5021446;28;20053;-56
2021/01/10 01:59:33;;;;;;;46.03;23.65;;;2.30;88.10;;;;;;5022513;28;20116;-59
2021/01/10 02:01:58;;;;;;;40.28;23.23;;;2.30;88.50;;;;;;5020507;28;20038;-60
2021/01/10 02:04:37;;;;;;;40.92;23.25;;;2.40;88.40;;;;;;5021961;28;20022;-56
2021/01/10 02:07:20;;;;;;;41.92;23.10;;;2.40;87.90;;;;;;5025743;28;20481;-58
2021/01/10 02:09:53;;;;;;;42.50;24.30;;;2.40;87.80;;;;;;5022100;28;20032;-58
2021/01/10 02:12:20;;;;;;;43.40;23.95;;;2.40;87.80;;;;;;5023230;28;20026;-56
2021/01/10 02:14:59;;;;;;;43.85;23.98;;;2.40;87.80;;;;;;5021583;28;20026;-57
2021/01/10 02:17:27;;;;;;;49.28;26.83;;;2.40;87.60;;;;;;5022194;28;20552;-57
2021/01/10 02:20:15;;;;;;;45.25;24.77;;;2.30;87.80;;;;;;5004760;28;20041;-57
2021/01/10 02:23:16;;;;;;;46.72;26.00;;;2.30;87.60;;;;;;5022281;28;20749;-54
2021/01/10 02:25:45;;;;;;;42.45;23.35;;;2.40;87.80;;;;;;5020536;28;20111;-56
2021/01/10 02:28:11;;;;;;;43.05;24.00;;;2.30;88.00;;;;;;5023961;28;20026;-58
2021/01/10 02:30:42;;;;;;;41.47;22.45;;;2.20;88.50;;;;;;5027051;28;20030;-59
2021/01/10 02:33:45;;;;;;;46.95;24.75;;;2.20;88.60;;;;;;5029011;28;20030;-57
2021/01/10 02:36:48;;;;;;;46.13;23.58;;;2.20;89.40;;;;;;5025357;28;20092;-54
2021/01/10 02:39:39;;;;;;;41.15;22.77;;;2.20;88.90;;;;;;5031158;28;20036;-57
2021/01/10 02:42:13;;;;;;;43.90;23.55;;;2.20;88.80;;;;;;5024374;28;20393;-55
2021/01/10 02:44:49;;;;;;;41.40;22.55;;;2.30;88.70;;;;;;5030709;28;20038;-57
2021/01/10 02:47:15;;;;;;;41.20;22.77;;;2.20;88.70;;;;;;5033108;28;20033;-58
2021/01/10 02:49:40;;;;;;;42.28;23.85;;;2.20;88.70;;;;;;5020008;28;20467;-60
2021/01/10 02:52:06;;;;;;;43.05;24.48;;;2.30;88.70;;;;;;5042663;28;20132;-60
2021/01/10 02:54:31;;;;;;;43.40;25.42;;;2.30;88.50;;;;;;5037138;28;20033;-61
2021/01/10 02:57:05;;;;;;;44.95;23.67;;;2.30;88.50;;;;;;5033506;28;20688;-61
2021/01/10 02:59:34;;;;;;;44.65;22.95;;;2.30;88.40;;;;;;5029905;28;20512;-63
2021/01/10 03:02:03;;;;;;;48.72;24.88;;;2.30;88.00;;;;;;5028969;28;20045;-61
2021/01/10 03:04:30;;;;;;;45.88;24.42;;;2.20;88.10;;;;;;5029248;28;20029;-62
2021/01/10 03:06:58;;;;;;;45.13;24.83;;;2.20;88.50;;;;;;5023216;28;20048;-56
2021/01/10 03:09:24;;;;;;;45.38;24.42;;;2.30;88.70;;;;;;5025082;28;20543;-62
2021/01/10 03:11:52;;;;;;;41.95;22.42;;;2.30;88.50;;;;;;5024066;28;20057;-62
2021/01/10 03:14:18;;;;;;;45.72;22.98;;;2.40;88.60;;;;;;5022808;28;20545;-64
2021/01/10 03:16:43;;;;;;;40.00;22.23;;;2.40;88.30;;;;;;5026176;28;20068;-62
2021/01/10 03:19:10;;;;;;;42.25;24.08;;;2.40;88.50;;;;;;5024424;28;20381;-62
2021/01/10 03:21:35;;;;;;;43.85;23.63;;;2.40;88.60;;;;;;5027305;28;20117;-61
2021/01/10 03:24:01;;;;;;;41.17;23.77;;;2.40;88.60;;;;;;5022774;28;20489;-60
2021/01/10 03:26:27;;;;;;;44.42;24.50;;;2.40;88.70;;;;;;5024443;28;20553;-57
2021/01/10 03:28:53;;;;;;;40.92;23.25;;;2.40;88.60;;;;;;5025879;28;20361;-60
2021/01/10 03:31:19;;;;;;;38.97;23.67;;;2.50;88.60;;;;;;5007949;28;20085;-60
2021/01/10 03:33:47;;;;;;;46.00;23.90;;;2.50;88.50;;;;;;5006161;28;20468;-60
2021/01/10 03:36:13;;;;;;;45.97;26.38;;;2.50;88.50;;;;;;5023910;28;20045;-61
2021/01/10 03:38:39;;;;;;;41.42;23.42;;;2.50;88.40;;;;;;5027098;28;20036;-60
2021/01/10 03:41:06;;;;;;;42.58;23.95;;;2.50;87.90;;;;;;5026309;28;20029;-59
2021/01/10 03:43:31;;;;;;;40.22;23.48;;;2.50;88.30;;;;;;5025414;28;20046;-62
2021/01/10 03:45:57;;;;;;;46.42;24.42;;;2.50;88.60;;;;;;5024292;28;20046;-61
2021/01/10 03:48:23;;;;;;;41.60;23.58;;;2.50;88.60;;;;;;5021264;28;20038;-63
2021/01/10 03:50:48;;;;;;;42.08;23.85;;;2.50;88.80;;;;;;5016501;28;20049;-62
2021/01/10 03:53:14;;;;;;;39.30;22.95;;;2.30;89.40;;;;;;5033648;28;20044;-62
2021/01/10 03:55:39;;;;;;;46.13;25.10;;;2.30;89.00;;;;;;5033017;28;20041;-62
2021/01/10 03:58:05;;;;;;;44.22;24.20;;;2.30;88.50;;;;;;5032645;28;20030;-61
2021/01/10 04:00:30;;;;;;;44.80;25.08;;;2.40;88.30;;;;;;5034271;28;20030;-63
2021/01/10 04:02:56;;;;;;;46.05;25.52;;;2.40;88.70;;;;;;5034159;28;20034;-62
2021/01/10 04:05:22;;;;;;;42.88;23.60;;;2.40;88.90;;;;;;5033758;28;20392;-60
2021/01/10 04:07:47;;;;;;;47.90;27.02;;;2.40;88.90;;;;;;5032789;28;20033;-60
2021/01/10 04:10:13;;;;;;;46.58;25.80;;;2.20;88.90;;;;;;5033605;28;20038;-62
2021/01/10 04:12:38;;;;;;;48.22;24.33;;;2.20;89.10;;;;;;5016217;28;20033;-62
2021/01/10 04:15:05;;;;;;;41.85;24.33;;;2.20;89.30;;;;;;5013057;28;20049;-61
2021/01/10 04:17:31;;;;;;;48.17;26.13;;;2.20;89.30;;;;;;5032975;28;20041;-62
2021/01/10 04:19:57;;;;;;;45.53;24.83;;;2.20;89.30;;;;;;5061944;22;20041;-60
2021/01/10 04:22:23;;;;;;;43.72;24.13;;;2.20;89.40;;;;;;5035412;28;20399;-61
2021/01/10 04:24:51;;;;;;;42.92;25.40;;;2.30;88.70;;;;;;5028638;28;20034;-61
2021/01/10 04:27:17;;;;;;;42.30;23.85;;;2.30;88.10;;;;;;5024606;28;20025;-61
2021/01/10 04:29:43;;;;;;;42.97;25.40;;;2.20;88.70;;;;;;5029615;28;20049;-61
2021/01/10 04:32:08;;;;;;;46.80;27.00;;;2.10;89.30;;;;;;5024496;28;20080;-61
2021/01/10 04:34:34;;;;;;;46.55;25.65;;;2.10;89.40;;;;;;5019570;28;20034;-57
2021/01/10 04:37:00;;;;;;;43.47;25.13;;;2.10;89.50;;;;;;5013166;28;20034;-59
2021/01/10 04:39:25;;;;;;;45.15;24.25;;;2.10;89.40;;;;;;5003952;28;20061;-60
2021/01/10 04:41:52;;;;;;;45.00;25.85;;;2.10;89.60;;;;;;5008272;28;20030;-60
2021/01/10 04:44:18;;;;;;;48.75;25.58;;;2.10;89.80;;;;;;5020118;28;20025;-60
2021/01/10 04:46:45;;;;;;;44.88;25.20;;;2.10;90.30;;;;;;5030947;28;20087;-58
2021/01/10 04:49:12;;;;;;;44.05;24.13;;;2.10;90.10;;;;;;5032497;28;20036;-61
2021/01/10 04:51:39;;;;;;;46.88;25.10;;;2.10;90.00;;;;;;5002498;28;20034;-59
2021/01/10 04:54:06;;;;;;;51.22;27.20;;;2.00;90.00;;;;;;5008934;28;20464;-61
2021/01/10 04:56:35;;;;;;;49.00;25.88;;;2.00;90.00;;;;;;5033071;28;20099;-60
2021/01/10 04:59:04;;;;;;;48.20;25.52;;;2.00;89.90;;;;;;5033653;28;20026;-61
2021/01/10 05:01:35;;;;;;;47.00;25.35;;;2.00;90.00;;;;;;5032559;28;20040;-59
2021/01/10 05:04:01;;;;;;;48.50;27.75;;;2.00;89.70;;;;;;5035043;28;20068;-61
2021/01/10 05:06:26;;;;;;;49.40;26.00;;;2.00;89.60;;;;;;5015675;28;20492;-61
2021/01/10 05:08:54;;;;;;;49.92;25.85;;;1.90;89.40;;;;;;5024944;28;20058;-61
2021/01/10 05:11:20;;;;;;;46.00;24.27;;;1.90;89.70;;;;;;5012183;28;20112;-60
2021/01/10 05:13:46;;;;;;;49.67;24.67;;;2.00;89.60;;;;;;5031849;28;20095;-60
2021/01/10 05:16:19;;;;;;;44.20;24.25;;;2.00;89.50;;;;;;5027145;28;20614;-62
2021/01/10 05:18:49;;;;;;;53.20;25.88;;;2.00;89.20;;;;;;5030662;28;20041;-60
2021/01/10 05:21:14;;;;;;;46.00;25.65;;;2.00;89.20;;;;;;5020898;28;20044;-60
2021/01/10 05:23:40;;;;;;;45.88;25.33;;;2.10;89.30;;;;;;5032330;28;20036;-59
2021/01/10 05:26:06;;;;;;;44.95;25.55;;;2.10;89.20;;;;;;5000658;28;20034;-60
2021/01/10 05:28:35;;;;;;;44.20;25.40;;;2.20;89.10;;;;;;5013830;28;20080;-60
2021/01/10 05:31:07;;;;;;;41.50;22.90;;;2.20;89.00;;;;;;5013184;28;20022;-59
2021/01/10 05:33:49;;;;;;;47.08;26.10;;;2.30;88.90;;;;;;5013450;28;20041;-60
2021/01/10 05:36:35;;;;;;;42.67;22.98;;;2.30;88.60;;;;;;5011409;28;20101;-60
2021/01/10 05:39:22;;;;;;;43.58;22.77;;;2.30;88.40;;;;;;5029653;28;20049;-60
2021/01/10 05:41:58;;;;;;;40.72;23.23;;;2.40;88.40;;;;;;5031894;28;20033;-58
2021/01/10 05:44:25;;;;;;;40.97;22.52;;;2.40;88.50;;;;;;5015358;28;20097;-60
2021/01/10 05:47:02;;;;;;;39.85;23.77;;;2.40;88.00;;;;;;5011546;28;20033;-60
2021/01/10 05:49:28;;;;;;;40.45;22.48;;;2.40;88.00;;;;;;5021500;28;20037;-61
2021/01/10 05:51:55;;;;;;;40.83;24.00;;;2.30;88.10;;;;;;5011942;28;20038;-58
2021/01/10 05:54:53;;;;;;;43.38;23.52;;;2.30;88.10;;;;;;5024264;28;20041;-61
2021/01/10 05:57:25;;;;;;;37.20;21.77;;;2.40;88.30;;;;;;4977305;28;20045;-61
2021/01/10 05:59:53;;;;;;;42.65;25.40;;;2.30;88.20;;;;;;5031315;28;20041;-58
2021/01/10 06:02:28;;;;;;;40.97;22.38;;;2.10;88.40;;;;;;5031896;28;20037;-60
2021/01/10 06:05:16;;;;;;;42.38;24.15;;;2.20;88.10;;;;;;5017537;28;20030;-60
2021/01/10 06:07:42;;;;;;;41.42;22.90;;;2.20;88.40;;;;;;5015970;28;20018;-60
2021/01/10 06:10:10;;;;;;;40.53;23.05;;;2.20;88.60;;;;;;5034906;28;20037;-59
2021/01/10 06:12:36;;;;;;;40.92;22.92;;;1.90;88.40;;;;;;5035745;28;20036;-61
2021/01/10 06:15:15;;;;;;;40.83;23.27;;;1.80;89.50;;;;;;5028885;28;20045;-61
2021/01/10 06:17:43;;;;;;;40.95;22.52;;;1.70;89.80;;;;;;5020591;28;20061;-60
2021/01/10 06:20:29;;;;;;;47.88;24.67;;;1.40;90.60;;;;;;5015675;28;20496;-61
2021/01/10 06:22:59;;;;;;;41.10;21.55;;;1.50;90.40;;;;;;5020984;28;20112;-60
2021/01/10 06:25:28;;;;;;;44.47;24.95;;;1.60;90.50;;;;;;5035971;28;20048;-60
2021/01/10 06:28:12;;;;;;;42.55;23.42;;;1.70;90.00;;;;;;5012265;28;20034;-61
2021/01/10 06:30:43;;;;;;;40.22;23.13;;;1.70;90.20;;;;;;5015396;28;20026;-61
2021/01/10 06:33:16;;;;;;;45.13;23.70;;;1.80;89.80;;;;;;5021876;28;20050;-61
2021/01/10 06:35:43;;;;;;;43.08;24.02;;;1.60;90.10;;;;;;5019573;28;20040;-60
2021/01/10 06:38:10;;;;;;;38.50;23.67;;;1.70;89.80;;;;;;5020988;28;20033;-60
2021/01/10 06:40:38;;;;;;;43.67;25.48;;;1.70;89.40;;;;;;5034504;28;20442;-60
2021/01/10 06:43:06;;;;;;;37.72;22.48;;;1.70;89.60;;;;;;5034808;28;20075;-61
2021/01/10 06:45:39;;;;;;;41.03;23.35;;;1.70;90.00;;;;;;5033633;28;20388;-60
2021/01/10 06:48:07;;;;;;;42.03;23.60;;;1.70;90.10;;;;;;5034770;28;20127;-60
2021/01/10 06:50:33;;;;;;;43.25;24.33;;;1.60;90.00;;;;;;5033857;28;20022;-60
2021/01/10 06:53:08;;;;;;;39.25;24.17;;;1.30;90.30;;;;;;5034934;28;20037;-60
2021/01/10 06:55:36;;;;;;;37.88;22.33;;;1.20;90.70;;;;;;5024230;28;20030;-59
2021/01/10 06:58:08;;;;;;;36.70;22.58;;;1.10;90.70;;;;;;5016134;28;20117;-60
2021/01/10 07:00:57;;;;;;;34.10;20.83;;;1.10;90.60;;;;;;5015270;28;20037;-59
2021/01/10 07:03:24;;;;;;;34.47;20.10;;;1.20;90.20;;;;;;5022066;28;20040;-60
2021/01/10 07:06:06;;;;;;;33.20;20.35;;;1.20;90.20;;;;;;5035496;28;20044;-60
2021/01/10 07:08:42;;;;;;;32.85;19.98;;;1.00;90.10;;;;;;5010512;28;20121;-60
2021/01/10 07:11:20;;;;;;;31.00;18.38;;;1.00;90.20;;;;;;5016552;28;20041;-60
2021/01/10 07:14:12;;;;;;;30.92;19.10;;;0.90;90.10;;;;;;5034469;28;20512;-60
2021/01/10 07:16:39;;;;;;;31.05;19.55;;;0.70;90.20;;;;;;5031162;28;20099;-61
2021/01/10 07:19:07;;;;;;;31.90;19.23;;;0.60;90.50;;;;;;4999332;28;20026;-61
2021/01/10 07:21:35;;;;;;;30.88;19.92;;;0.70;90.40;;;;;;5018713;28;20084;-61
2021/01/10 07:24:15;;;;;;;31.00;19.55;;;0.60;90.40;;;;;;5034481;28;20033;-61
2021/01/10 07:27:02;;;;;;;27.95;18.08;;;0.80;90.20;;;;;;5023322;28;20045;-60
2021/01/10 07:29:33;;;;;;;32.13;19.58;;;0.90;90.10;;;;;;5026091;28;20060;-59
2021/01/10 07:32:19;;;;;;;43.90;24.73;;;0.90;89.80;;;;;;5028661;28;20065;-61
2021/01/10 07:34:45;;;;;;;35.58;21.40;;;1.10;89.50;;;;;;5035116;28;20045;-60
2021/01/10 07:37:28;;;;;;;34.22;20.48;;;1.10;88.50;;;;;;5023828;28;20045;-59
2021/01/10 07:40:01;;;;;;;32.20;19.70;;;1.10;88.00;;;;;;5002290;28;20033;-60
2021/01/10 07:42:31;;;;;;;27.42;16.45;;;0.70;89.40;;;;;;5033941;28;20033;-60
2021/01/10 07:45:02;;;;;;;29.98;18.23;;;0.70;89.50;;;;;;5031305;28;20057;-62
2021/01/10 07:47:34;;;;;;;28.80;18.60;;;0.70;90.00;;;;;;4996664;28;20049;-58
2021/01/10 07:50:26;;;;;;;30.83;21.20;;;0.70;89.20;;;;;;5032596;28;20484;-60
2021/01/10 07:52:59;;;;;;;39.10;22.90;;;0.40;90.30;;;;;;5003679;28;20058;-61
2021/01/10 07:55:24;;;;;;;34.50;19.88;;;0.30;90.50;;;;;;5031710;28;20037;-61
2021/01/10 07:58:02;;;;;;;31.25;19.50;;;0.50;90.40;;;;;;5026523;28;20516;-63
2021/01/10 08:00:32;;;;;;;35.33;21.58;;;0.60;90.00;;;;;;5015892;28;20037;-60
2021/01/10 08:03:03;;;;;;;32.33;19.42;;;0.70;90.00;;;;;;5033743;28;20021;-60
2021/01/10 08:05:30;;;;;;;35.28;21.30;;;0.70;89.60;;;;;;5030769;28;20099;-61
2021/01/10 08:07:58;;;;;;;31.27;20.83;;;0.80;88.00;;;;;;4997871;28;20073;-61
2021/01/10 08:10:27;;;;;;;31.00;19.10;;;0.70;88.30;;;;;;5015726;28;20788;-60
2021/01/10 08:12:53;;;;;;;30.88;19.90;;;0.70;88.40;;;;;;5033983;28;20045;-61
2021/01/10 08:15:19;;;;;;;31.30;19.92;;;0.70;89.00;;;;;;5032474;28;20132;-61
2021/01/10 08:17:45;;;;;;;32.75;21.58;;;0.80;88.70;;;;;;4995952;28;20049;-61
2021/01/10 08:20:11;;;;;;;35.08;21.13;;;0.80;87.90;;;;;;5011233;28;20097;-61
2021/01/10 08:22:37;;;;;;;30.77;19.77;;;0.70;88.20;;;;;;5002402;28;20044;-61
2021/01/10 08:25:05;;;;;;;30.20;20.17;;;0.80;87.80;;;;;;5013387;28;20477;-60
2021/01/10 08:27:31;;;;;;;30.30;19.65;;;0.90;88.00;;;;;;5031920;28;20120;-61
2021/01/10 08:29:57;;;;;;;28.80;18.83;;;0.90;87.00;;;;;;5033221;28;20040;-60
2021/01/10 08:32:23;;;;;;;32.28;20.17;;;1.00;87.60;;;;;;5031369;28;20038;-64
2021/01/10 08:34:54;;;;;;;36.40;23.45;;;0.90;87.50;;;;;;5005049;28;20100;-61
2021/01/10 08:37:21;;;;;;;35.30;23.15;;;1.00;87.30;;;;;;5013562;28;20044;-59
2021/01/10 08:40:02;;;;;;;43.05;26.30;;;1.00;87.40;;;;;;5004511;28;20380;-63
2021/01/10 08:42:31;;;;;;;34.45;21.55;;;0.90;87.40;;;;;;5031696;28;20033;-62
2021/01/10 08:45:19;;;;;;;35.75;21.77;;;0.90;87.40;;;;;;5005254;28;20029;-62
2021/01/10 08:47:45;;;;;;;33.22;20.30;;;0.90;87.80;;;;;;5013919;28;20030;-59
2021/01/10 08:50:12;;;;;;;33.28;21.08;;;1.10;87.20;;;;;;5030988;28;20029;-61
2021/01/10 08:53:07;;;;;;;31.60;20.67;;;1.10;87.00;;;;;;5032750;28;20392;-62
2021/01/10 08:55:42;;;;;;;38.78;22.75;;;0.90;87.80;;;;;;4970910;28;20053;-61
2021/01/10 08:58:10;;;;;;;38.47;24.83;;;0.90;87.40;;;;;;5021980;28;20425;-60
2021/01/10 09:00:40;;;;;;;36.00;22.05;;;0.90;87.70;;;;;;5014526;28;20396;-60
2021/01/10 09:03:19;;;;;;;33.83;20.17;;;1.00;86.60;;;;;;5003639;28;20037;-60
2021/01/10 09:05:47;;;;;;;36.20;22.55;;;1.10;86.90;;;;;;5013344;28;20026;-61
2021/01/10 09:08:27;;;;;;;37.75;23.10;;;1.00;86.90;;;;;;5023451;28;20463;-61
2021/01/10 09:11:03;;;;;;;35.97;23.23;;;0.90;87.00;;;;;;5032751;28;20048;-62
2021/01/10 09:13:32;;;;;;;38.28;23.13;;;1.00;87.00;;;;;;5031714;28;20041;-60
2021/01/10 09:15:59;;;;;;;37.00;23.55;;;0.90;87.40;;;;;;5029672;28;20103;-61
2021/01/10 09:18:29;;;;;;;34.35;22.38;;;0.90;87.20;;;;;;5012714;28;20116;-60
2021/01/10 09:21:05;;;;;;;39.35;23.30;;;1.10;86.60;;;;;;5014541;28;20493;-60
2021/01/10 09:23:31;;;;;;;40.78;23.35;;;0.90;87.60;;;;;;5032045;28;20033;-60
2021/01/10 09:25:57;;;;;;;39.13;23.52;;;1.10;87.00;;;;;;5030860;28;20507;-61
2021/01/10 09:28:22;;;;;;;37.88;22.33;;;1.00;87.10;;;;;;5032341;28;20511;-61
2021/01/10 09:30:56;;;;;;;39.10;23.27;;;1.10;86.30;;;;;;5026634;28;20045;-61
2021/01/10 09:33:24;;;;;;;38.20;22.98;;;1.00;86.70;;;;;;5012310;28;20037;-61
2021/01/10 09:35:50;;;;;;;38.70;24.73;;;1.00;86.70;;;;;;5017358;28;20088;-61
2021/01/10 09:38:21;;;;;;;38.60;23.25;;;1.10;86.30;;;;;;5031032;28;20500;-60
2021/01/10 09:41:19;;;;;;;39.92;24.73;;;0.80;86.80;;;;;;5030696;28;20049;-60
2021/01/10 09:43:46;;;;;;;36.20;22.33;;;0.90;87.50;;;;;;4968611;28;20050;-61
2021/01/10 09:46:28;;;;;;;31.38;20.17;;;0.80;88.10;;;;;;5028111;28;20501;-60
2021/01/10 09:48:57;;;;;;;35.38;21.92;;;1.00;87.20;;;;;;5015013;28;20040;-59
2021/01/10 09:51:23;;;;;;;43.28;25.83;;;1.00;86.10;;;;;;5013781;28;20026;-60
2021/01/10 09:53:49;;;;;;;34.80;22.00;;;1.00;87.00;;;;;;5013722;28;20045;-60
2021/01/10 09:56:34;;;;;;;36.78;22.58;;;0.90;86.20;;;;;;5032485;28;20451;-60
2021/01/10 09:58:59;;;;;;;38.20;23.63;;;0.90;86.50;;;;;;5026741;28;20101;-61
2021/01/10 10:01:36;;;;;;;37.33;23.42;;;0.60;88.10;;;;;;5012029;28;20062;-61
2021/01/10 10:04:03;;;;;;;34.85;22.27;;;0.50;88.80;;;;;;5017036;28;20026;-60
2021/01/10 10:06:29;;;;;;;37.78;23.50;;;0.50;88.80;;;;;;5031919;28;20095;-60
2021/01/10 10:08:55;;;;;;;41.28;24.25;;;0.60;88.50;;;;;;5015293;28;20030;-60
2021/01/10 10:11:21;;;;;;;41.00;25.30;;;0.70;88.40;;;;;;5023430;28;20039;-60
2021/01/10 10:13:55;;;;;;;44.35;26.23;;;0.60;88.70;;;;;;5031931;28;20124;-60
2021/01/10 10:16:21;;;;;;;42.58;24.40;;;0.50;89.40;;;;;;5020738;28;20564;-61
2021/01/10 10:18:46;;;;;;;45.03;26.17;;;0.50;89.10;;;;;;5012929;28;20085;-61
2021/01/10 10:21:12;;;;;;;43.63;25.15;;;0.50;89.20;;;;;;5036533;23;20057;-58
2021/01/10 10:23:41;;;;;;;46.30;26.30;;;0.50;89.40;;;;;;4996383;28;20064;-60
2021/01/10 10:26:07;;;;;;;49.90;27.77;;;0.40;89.90;;;;;;5011679;28;20022;-61
2021/01/10 10:28:33;;;;;;;44.88;26.10;;;0.30;90.40;;;;;;4978095;28;20042;-60
2021/01/10 10:30:58;;;;;;;43.88;27.15;;;0.40;90.20;;;;;;4993917;28;20084;-60
2021/01/10 10:33:24;;;;;;;46.55;26.92;;;0.30;90.60;;;;;;5011867;28;20393;-60
2021/01/10 10:35:49;;;;;;;48.42;26.55;;;0.30;90.70;;;;;;5011749;28;20048;-59
2021/01/10 10:38:15;;;;;;;44.78;25.65;;;0.30;90.70;;;;;;5011752;28;20054;-60
2021/01/10 10:40:40;;;;;;;46.33;25.95;;;0.50;90.30;;;;;;5011122;28;20117;-60
2021/01/10 10:43:06;;;;;;;42.50;25.30;;;0.50;90.30;;;;;;5011194;28;20480;-60
2021/01/10 10:45:32;;;;;;;44.67;25.63;;;0.60;89.90;;;;;;5011455;28;20073;-61
2021/01/10 10:47:57;;;;;;;47.40;26.88;;;0.30;90.70;;;;;;4993934;28;20121;-60
2021/01/10 10:50:24;;;;;;;45.65;27.95;;;0.20;91.20;;;;;;4997415;28;20112;-60
2021/01/10 10:52:50;;;;;;;45.22;26.02;;;0.30;91.30;;;;;;5015521;28;20045;-62
2021/01/10 10:55:18;;;;;;;50.25;27.40;;;0.60;90.30;;;;;;4997558;28;20129;-59
2021/01/10 10:57:44;;;;;;;43.67;25.67;;;0.30;90.70;;;;;;5015468;28;20026;-60
2021/01/10 11:00:11;;;;;;;42.28;26.20;;;0.30;91.10;;;;;;5015071;28;20392;-60
2021/01/10 11:02:37;;;;;;;45.40;26.20;;;0.40;90.80;;;;;;5014953;28;20038;-60
2021/01/10 11:05:05;;;;;;;47.17;26.60;;;0.40;90.60;;;;;;5014733;28;20037;-60
2021/01/10 11:07:33;;;;;;;44.63;26.15;;;0.30;90.80;;;;;;5015343;28;20034;-62
2021/01/10 11:09:59;;;;;;;44.97;25.75;;;0.60;90.60;;;;;;4997494;28;20481;-60
2021/01/10 11:12:24;;;;;;;44.42;26.65;;;0.70;90.40;;;;;;4997404;28;20034;-61
2021/01/10 11:14:50;;;;;;;43.83;25.55;;;0.50;90.40;;;;;;5014984;28;20026;-58
2021/01/10 11:17:16;;;;;;;44.22;26.10;;;0.40;90.70;;;;;;5014830;28;20084;-60
2021/01/10 11:19:41;;;;;;;43.88;26.27;;;0.60;90.20;;;;;;4996739;28;20108;-59
2021/01/10 11:22:08;;;;;;;42.33;25.92;;;0.70;90.20;;;;;;5014341;28;20488;-60
2021/01/10 11:24:34;;;;;;;48.72;27.30;;;0.70;90.10;;;;;;5014200;28;20036;-60
2021/01/10 11:27:03;;;;;;;45.05;27.30;;;0.60;90.20;;;;;;5014646;28;20054;-58
2021/01/10 11:29:29;;;;;;;47.33;27.23;;;0.20;91.40;;;;;;5015479;28;20073;-59
2021/01/10 11:31:55;;;;;;;43.30;25.55;;;0.60;90.90;;;;;;5014423;28;20026;-59
2021/01/10 11:34:22;;;;;;;43.25;25.10;;;0.70;90.50;;;;;;5014050;28;20044;-58
2021/01/10 11:36:53;;;;;;;42.95;27.02;;;0.80;90.00;;;;;;5014429;28;20420;-62
2021/01/10 11:39:23;;;;;;;41.13;25.48;;;0.60;90.30;;;;;;5014579;28;20025;-59
2021/01/10 11:41:54;;;;;;;44.40;26.40;;;0.60;90.30;;;;;;4997016;28;20038;-60
2021/01/10 11:44:21;;;;;;;43.85;25.98;;;0.60;90.60;;;;;;5013593;28;20026;-59
2021/01/10 11:46:51;;;;;;;40.42;23.30;;;0.60;90.30;;;;;;5014256;28;20030;-60
2021/01/10 11:49:18;;;;;;;45.92;26.10;;;0.60;90.60;;;;;;5013790;28;20033;-57
2021/01/10 11:51:45;;;;;;;43.60;25.58;;;0.50;90.40;;;;;;4996312;28;20033;-58
2021/01/10 11:54:15;;;;;;;43.95;26.40;;;0.30;90.90;;;;;;5013594;28;20493;-59
2021/01/10 11:56:41;;;;;;;43.15;26.77;;;0.50;90.70;;;;;;4995860;28;20488;-59
2021/01/10 11:59:07;;;;;;;42.30;25.65;;;0.40;90.90;;;;;;4996329;28;20671;-58
2021/01/10 12:01:34;;;;;;;41.35;24.45;;;0.20;91.00;;;;;;5012625;28;20046;-59
2021/01/10 12:04:00;;;;;;;43.17;24.50;;;0.30;90.70;;;;;;4996245;28;20125;-55
2021/01/10 12:06:26;;;;;;;41.83;25.40;;;0.30;91.10;;;;;;5013579;28;20062;-57
2021/01/10 12:08:52;;;;;;;40.92;24.35;;;0.30;90.80;;;;;;5014162;28;20643;-59
2021/01/10 12:11:18;;;;;;;42.45;24.23;;;0.30;90.90;;;;;;5011990;28;20037;-59
2021/01/10 12:13:44;;;;;;;47.75;27.77;;;0.50;90.50;;;;;;5012809;28;20515;-56
2021/01/10 12:16:19;;;;;;;41.95;25.95;;;0.50;90.60;;;;;;5013314;28;20042;-61
2021/01/10 12:18:46;;;;;;;44.15;25.98;;;0.50;90.60;;;;;;5013346;28;20100;-62
2021/01/10 12:21:15;;;;;;;49.88;26.45;;;0.60;90.70;;;;;;5012998;28;20121;-60
2021/01/10 12:23:41;;;;;;;43.25;25.85;;;0.70;90.30;;;;;;5006950;28;20037;-60
2021/01/10 12:26:11;;;;;;;47.95;27.35;;;0.50;90.70;;;;;;5001282;28;20093;-59
2021/01/10 12:28:37;;;;;;;70.15;37.30;;;0.50;90.90;;;;;;5016660;28;20145;-57
2021/01/10 12:31:04;;;;;;;46.05;27.52;;;0.60;90.70;;;;;;5005608;28;20030;-59
2021/01/10 12:33:31;;;;;;;42.20;24.75;;;0.70;90.10;;;;;;5001711;28;20053;-58
2021/01/10 12:35:56;;;;;;;41.00;25.65;;;1.00;89.20;;;;;;5007422;28;20121;-59
2021/01/10 12:38:22;;;;;;;45.90;27.08;;;0.90;89.60;;;;;;5004051;28;20125;-55
2021/01/10 12:40:47;;;;;;;39.58;24.17;;;1.20;88.10;;;;;;4994055;28;20060;-58
2021/01/10 12:43:13;;;;;;;47.75;26.98;;;1.20;88.00;;;;;;5001623;28;20075;-60
2021/01/10 12:45:40;;;;;;;41.10;24.90;;;1.20;88.20;;;;;;5002336;28;20037;-60